sensor_id;sensor_type;location;lat;lon;timestamp;pressure;altitude;pressure_sealevel;temperature;humidity
69318;BME280;56457;52.190;4.440;2023-05-09T00:00:37;101902.66;;;14.41;100.00
69318;BME280;56457;52.190;4.440;2023-05-09T00:01:38;101900.88;;;14.39;100.00
69318;BME280;56457;52.190;4.440;2023-05-09T00:02:40;101897.38;;;14.38;100.00
69318;BME280;56457;52.190;4.440;2023-05-09T00:03:41;101892.09;;;14.38;100.00
69318;BME280;56457;52.190;4.440;2023-05-09T00:04:41;101895.63;;;14.37;100.00
69318;BME280;56457;52.190;4.440;2023-05-09T00:05:42;101903.53;;;14.37;100.00
69318;BME280;56457;52.190;4.440;2023-05-09T00:06:42;101901.78;;;14.38;100.00
69318;BME280;56457;52.190;4.440;2023-05-09T00:07:42;101896.47;;;14.41;100.00
69318;BME280;56457;52.190;4.440;2023-05-09T00:08:43;101898.19;;;14.45;100.00
69318;BME280;56457;52.190;4.440;2023-05-09T00:09:43;101893.78;;;14.45;100.00
69318;BME280;56457;52.190;4.440;2023-05-09T00:10:43;101899.94;;;14.46;100.00
69318;BME280;56457;52.190;4.440;2023-05-09T00:11:43;101903.47;;;14.45;100.00
69318;BME280;56457;52.190;4.440;2023-05-09T00:12:44;101896.47;;;14.48;100.00
69318;BME280;56457;52.190;4.440;2023-05-09T00:13:44;101898.22;;;14.49;100.00
69318;BME280;56457;52.190;4.440;2023-05-09T00:14:44;101891.13;;;14.51;100.00
69318;BME280;56457;52.190;4.440;2023-05-09T00:15:47;101886.75;;;14.53;100.00
69318;BME280;56457;52.190;4.440;2023-05-09T00:16:47;101892.00;;;14.52;100.00
69318;BME280;56457;52.190;4.440;2023-05-09T00:17:48;101897.28;;;14.52;100.00
69318;BME280;56457;52.190;4.440;2023-05-09T00:18:49;101886.75;;;14.53;100.00
69318;BME280;56457;52.190;4.440;2023-05-09T00:19:50;101881.47;;;14.53;100.00
69318;BME280;56457;52.190;4.440;2023-05-09T00:20:51;101884.97;;;14.56;100.00
69318;BME280;56457;52.190;4.440;2023-05-09T00:21:52;101883.22;;;14.54;100.00
69318;BME280;56457;52.190;4.440;2023-05-09T00:22:53;101886.75;;;14.53;100.00
69318;BME280;56457;52.190;4.440;2023-05-09T00:23:54;101880.56;;;14.53;100.00
69318;BME280;56457;52.190;4.440;2023-05-09T00:24:54;101884.09;;;14.53;100.00
69318;BME280;56457;52.190;4.440;2023-05-09T00:25:55;101880.56;;;14.56;100.00
69318;BME280;56457;52.190;4.440;2023-05-09T00:26:55;101886.69;;;14.58;100.00
69318;BME280;56457;52.190;4.440;2023-05-09T00:27:55;101877.00;;;14.59;100.00
69318;BME280;56457;52.190;4.440;2023-05-09T00:28:56;101874.38;;;14.57;100.00
69318;BME280;56457;52.190;4.440;2023-05-09T00:29:56;101873.47;;;14.58;100.00
69318;BME280;56457;52.190;4.440;2023-05-09T00:30:56;101869.06;;;14.62;100.00
69318;BME280;56457;52.190;4.440;2023-05-09T00:31:56;101874.38;;;14.57;100.00
69318;BME280;56457;52.190;4.440;2023-05-09T00:32:57;101873.50;;;14.60;100.00
69318;BME280;56457;52.190;4.440;2023-05-09T00:33:57;101871.72;;;14.60;100.00
69318;BME280;56457;52.190;4.440;2023-05-09T00:34:57;101869.09;;;14.60;100.00
69318;BME280;56457;52.190;4.440;2023-05-09T00:35:58;101869.94;;;14.59;100.00
69318;BME280;56457;52.190;4.440;2023-05-09T00:36:58;101869.94;;;14.59;100.00
69318;BME280;56457;52.190;4.440;2023-05-09T00:37:58;101866.41;;;14.63;100.00
69318;BME280;56457;52.190;4.440;2023-05-09T00:38:58;101862.00;;;14.64;100.00
69318;BME280;56457;52.190;4.440;2023-05-09T00:39:59;101856.75;;;14.62;100.00
69318;BME280;56457;52.190;4.440;2023-05-09T00:40:59;101862.03;;;14.61;100.00
69318;BME280;56457;52.190;4.440;2023-05-09T00:41:59;101847.06;;;14.61;100.00
69318;BME280;56457;52.190;4.440;2023-05-09T00:43:00;101857.59;;;14.63;100.00
69318;BME280;56457;52.190;4.440;2023-05-09T00:44:00;101850.56;;;14.63;100.00
69318;BME280;56457;52.190;4.440;2023-05-09T00:45:00;101841.78;;;14.58;100.00
69318;BME280;56457;52.190;4.440;2023-05-09T00:46:01;101843.56;;;14.58;100.00
69318;BME280;56457;52.190;4.440;2023-05-09T00:47:01;101845.31;;;14.59;100.00
69318;BME280;56457;52.190;4.440;2023-05-09T00:48:01;101847.94;;;14.59;100.00
69318;BME280;56457;52.190;4.440;2023-05-09T00:49:01;101846.19;;;14.58;100.00
69318;BME280;56457;52.190;4.440;2023-05-09T00:50:03;101843.53;;;14.59;100.00
69318;BME280;56457;52.190;4.440;2023-05-09T00:51:04;101845.31;;;14.62;100.00
69318;BME280;56457;52.190;4.440;2023-05-09T00:52:04;101835.63;;;14.61;100.00
69318;BME280;56457;52.190;4.440;2023-05-09T00:53:04;101843.50;;;14.64;100.00
69318;BME280;56457;52.190;4.440;2023-05-09T00:54:05;101839.13;;;14.63;100.00
69318;BME280;56457;52.190;4.440;2023-05-09T00:55:05;101834.69;;;14.65;100.00
69318;BME280;56457;52.190;4.440;2023-05-09T00:56:07;101828.56;;;14.66;100.00
69318;BME280;56457;52.190;4.440;2023-05-09T00:57:08;101835.53;;;14.70;100.00
69318;BME280;56457;52.190;4.440;2023-05-09T00:58:08;101830.28;;;14.67;100.00
69318;BME280;56457;52.190;4.440;2023-05-09T00:59:08;101828.56;;;14.66;100.00
69318;BME280;56457;52.190;4.440;2023-05-09T01:00:09;101827.66;;;14.67;100.00
69318;BME280;56457;52.190;4.440;2023-05-09T01:01:12;101824.06;;;14.71;100.00
69318;BME280;56457;52.190;4.440;2023-05-09T01:02:12;101812.66;;;14.69;100.00
69318;BME280;56457;52.190;4.440;2023-05-09T01:03:12;101821.47;;;14.68;100.00
69318;BME280;56457;52.190;4.440;2023-05-09T01:04:13;101818.84;;;14.66;100.00
69318;BME280;56457;52.190;4.440;2023-05-09T01:05:13;101814.44;;;14.67;100.00
69318;BME280;56457;52.190;4.440;2023-05-09T01:11:00;101808.31;;;14.63;100.00
69318;BME280;56457;52.190;4.440;2023-05-09T01:15:30;101806.53;;;14.64;100.00
69318;BME280;56457;52.190;4.440;2023-05-09T01:16:54;101810.06;;;14.64;100.00
69318;BME280;56457;52.190;4.440;2023-05-09T01:19:11;101807.44;;;14.63;100.00
69318;BME280;56457;52.190;4.440;2023-05-09T01:20:28;101807.44;;;14.63;100.00
69318;BME280;56457;52.190;4.440;2023-05-09T01:21:29;101808.34;;;14.60;100.00
69318;BME280;56457;52.190;4.440;2023-05-09T01:22:32;101804.78;;;14.63;100.00
69318;BME280;56457;52.190;4.440;2023-05-09T01:30:23;101794.31;;;14.53;100.00
69318;BME280;56457;52.190;4.440;2023-05-09T01:31:24;101786.41;;;14.50;100.00
69318;BME280;56457;52.190;4.440;2023-05-09T01:32:26;101788.16;;;14.51;100.00
69318;BME280;56457;52.190;4.440;2023-05-09T01:33:27;101781.13;;;14.53;100.00
69318;BME280;56457;52.190;4.440;2023-05-09T01:34:29;101783.75;;;14.52;100.00
69318;BME280;56457;52.190;4.440;2023-05-09T01:35:31;101782.88;;;14.54;100.00
69318;BME280;56457;52.190;4.440;2023-05-09T01:36:32;101785.50;;;14.53;100.00
69318;BME280;56457;52.190;4.440;2023-05-09T01:37:36;101781.16;;;14.49;100.00
69318;BME280;56457;52.190;4.440;2023-05-09T01:38:38;101789.97;;;14.46;100.00
69318;BME280;56457;52.190;4.440;2023-05-09T01:39:43;101786.47;;;14.47;100.00
69318;BME280;56457;52.190;4.440;2023-05-09T01:40:44;101786.41;;;14.50;100.00
69318;BME280;56457;52.190;4.440;2023-05-09T01:41:46;101781.19;;;14.47;100.00
69318;BME280;56457;52.190;4.440;2023-05-09T01:42:50;101781.13;;;14.50;100.00
69318;BME280;56457;52.190;4.440;2023-05-09T01:43:51;101782.03;;;14.49;100.00
69318;BME280;56457;52.190;4.440;2023-05-09T01:44:53;101779.41;;;14.46;100.00
69318;BME280;56457;52.190;4.440;2023-05-09T01:45:54;101777.66;;;14.48;100.00
69318;BME280;56457;52.190;4.440;2023-05-09T01:46:55;101776.75;;;14.46;100.00
69318;BME280;56457;52.190;4.440;2023-05-09T01:47:56;101781.19;;;14.47;100.00
69318;BME280;56457;52.190;4.440;2023-05-09T01:48:57;101780.22;;;14.53;100.00
69318;BME280;56457;52.190;4.440;2023-05-09T01:50:00;101774.97;;;14.51;100.00
69318;BME280;56457;52.190;4.440;2023-05-09T01:51:00;101766.16;;;14.54;100.00
69318;BME280;56457;52.190;4.440;2023-05-09T01:52:07;101767.03;;;14.54;100.00
69318;BME280;56457;52.190;4.440;2023-05-09T01:53:09;101758.22;;;14.56;100.00
69318;BME280;56457;52.190;4.440;2023-05-09T01:54:10;101769.69;;;14.51;100.00
69318;BME280;56457;52.190;4.440;2023-05-09T01:55:10;101760.00;;;14.46;100.00
69318;BME280;56457;52.190;4.440;2023-05-09T01:56:11;101758.28;;;14.46;100.00
69318;BME280;56457;52.190;4.440;2023-05-09T01:57:12;101753.88;;;14.48;100.00
69318;BME280;56457;52.190;4.440;2023-05-09T01:58:13;101762.69;;;14.49;100.00
69318;BME280;56457;52.190;4.440;2023-05-09T01:59:14;101753.84;;;14.50;100.00
69318;BME280;56457;52.190;4.440;2023-05-09T02:00:16;101760.00;;;14.50;100.00
69318;BME280;56457;52.190;4.440;2023-05-09T02:01:18;101756.47;;;14.54;100.00
69318;BME280;56457;52.190;4.440;2023-05-09T02:02:18;101754.72;;;14.52;100.00
69318;BME280;56457;52.190;4.440;2023-05-09T02:03:19;101758.22;;;14.54;100.00
69318;BME280;56457;52.190;4.440;2023-05-09T02:04:20;101754.72;;;14.52;100.00
69318;BME280;56457;52.190;4.440;2023-05-09T02:05:20;101750.31;;;14.54;100.00
69318;BME280;56457;52.190;4.440;2023-05-09T02:06:25;101752.03;;;14.57;100.00
69318;BME280;56457;52.190;4.440;2023-05-09T02:07:28;101749.44;;;14.53;100.00
69318;BME280;56457;52.190;4.440;2023-05-09T02:08:29;101753.81;;;14.54;100.00
69318;BME280;56457;52.190;4.440;2023-05-09T02:09:30;101752.91;;;14.57;100.00
69318;BME280;56457;52.190;4.440;2023-05-09T02:10:30;101756.44;;;14.56;100.00
69318;BME280;56457;52.190;4.440;2023-05-09T02:11:31;101745.88;;;14.56;100.00
69318;BME280;56457;52.190;4.440;2023-05-09T02:12:32;101752.94;;;14.56;100.00
69318;BME280;56457;52.190;4.440;2023-05-09T02:13:32;101745.91;;;14.51;100.00
69318;BME280;56457;52.190;4.440;2023-05-09T02:14:32;101747.69;;;14.51;100.00
69318;BME280;56457;52.190;4.440;2023-05-09T02:15:33;101744.16;;;14.50;100.00
69318;BME280;56457;52.190;4.440;2023-05-09T02:16:33;101741.56;;;14.49;100.00
69318;BME280;56457;52.190;4.440;2023-05-09T02:17:34;101742.44;;;14.49;100.00
69318;BME280;56457;52.190;4.440;2023-05-09T02:18:34;101739.78;;;14.49;100.00
69318;BME280;56457;52.190;4.440;2023-05-09T02:19:35;101733.59;;;14.52;100.00
69318;BME280;56457;52.190;4.440;2023-05-09T02:20:35;101736.28;;;14.49;100.00
69318;BME280;56457;52.190;4.440;2023-05-09T02:21:36;101733.66;;;14.47;100.00
69318;BME280;56457;52.190;4.440;2023-05-09T02:22:36;101735.41;;;14.44;100.00
69318;BME280;56457;52.190;4.440;2023-05-09T02:23:38;101742.47;;;14.40;100.00
69318;BME280;56457;52.190;4.440;2023-05-09T02:24:38;101739.84;;;14.42;100.00
69318;BME280;56457;52.190;4.440;2023-05-09T02:25:39;101737.19;;;14.40;100.00
69318;BME280;56457;52.190;4.440;2023-05-09T02:26:39;101741.56;;;14.44;100.00
69318;BME280;56457;52.190;4.440;2023-05-09T02:27:40;101740.66;;;14.45;100.00
69318;BME280;56457;52.190;4.440;2023-05-09T02:28:41;101739.78;;;14.45;100.00
69318;BME280;56457;52.190;4.440;2023-05-09T02:29:45;101737.16;;;14.48;100.00
69318;BME280;56457;52.190;4.440;2023-05-09T02:30:46;101732.75;;;14.44;100.00
69318;BME280;56457;52.190;4.440;2023-05-09T02:31:48;101738.91;;;14.44;100.00
69318;BME280;56457;52.190;4.440;2023-05-09T02:32:49;101736.28;;;14.47;100.00
69318;BME280;56457;52.190;4.440;2023-05-09T02:33:51;101738.91;;;14.49;100.00
69318;BME280;56457;52.190;4.440;2023-05-09T02:34:52;101729.22;;;14.49;100.00
69318;BME280;56457;52.190;4.440;2023-05-09T02:35:53;101725.69;;;14.50;100.00
69318;BME280;56457;52.190;4.440;2023-05-09T02:36:54;101726.59;;;14.49;100.00
69318;BME280;56457;52.190;4.440;2023-05-09T02:37:55;101725.66;;;14.52;100.00
69318;BME280;56457;52.190;4.440;2023-05-09T02:38:56;101725.69;;;14.50;100.00
69318;BME280;56457;52.190;4.440;2023-05-09T02:39:56;101726.59;;;14.49;100.00
69318;BME280;56457;52.190;4.440;2023-05-09T02:40:57;101729.22;;;14.49;100.00
69318;BME280;56457;52.190;4.440;2023-05-09T02:42:10;101714.25;;;14.50;100.00
69318;BME280;56457;52.190;4.440;2023-05-09T02:43:11;101723.06;;;14.50;100.00
69318;BME280;56457;52.190;4.440;2023-05-09T02:44:11;101719.56;;;14.44;100.00
69318;BME280;56457;52.190;4.440;2023-05-09T02:45:11;101716.91;;;14.44;100.00
69318;BME280;56457;52.190;4.440;2023-05-09T02:46:11;101715.16;;;14.44;100.00
69318;BME280;56457;52.190;4.440;2023-05-09T02:47:12;101711.63;;;14.45;100.00
69318;BME280;56457;52.190;4.440;2023-05-09T02:48:12;101714.28;;;14.48;100.00
69318;BME280;56457;52.190;4.440;2023-05-09T02:49:12;101716.91;;;14.50;100.00
69318;BME280;56457;52.190;4.440;2023-05-09T02:50:13;101713.38;;;14.49;100.00
69318;BME280;56457;52.190;4.440;2023-05-09T02:51:13;101710.72;;;14.51;100.00
69318;BME280;56457;52.190;4.440;2023-05-09T02:52:13;101721.25;;;14.52;100.00
69318;BME280;56457;52.190;4.440;2023-05-09T02:53:14;101717.75;;;14.52;100.00
69318;BME280;56457;52.190;4.440;2023-05-09T02:54:14;101716.88;;;14.51;100.00
69318;BME280;56457;52.190;4.440;2023-05-09T02:55:15;101713.38;;;14.49;100.00
69318;BME280;56457;52.190;4.440;2023-05-09T02:56:15;101719.53;;;14.45;100.00
69318;BME280;56457;52.190;4.440;2023-05-09T02:57:15;101714.25;;;14.45;100.00
69318;BME280;56457;52.190;4.440;2023-05-09T02:58:16;101712.53;;;14.47;100.00
69318;BME280;56457;52.190;4.440;2023-05-09T02:59:16;101713.41;;;14.46;100.00
69318;BME280;56457;52.190;4.440;2023-05-09T03:00:17;101710.75;;;14.45;100.00
69318;BME280;56457;52.190;4.440;2023-05-09T03:01:20;101709.88;;;14.44;100.00
69318;BME280;56457;52.190;4.440;2023-05-09T03:02:20;101709.91;;;14.43;100.00
69318;BME280;56457;52.190;4.440;2023-05-09T03:03:22;101703.75;;;14.42;100.00
69318;BME280;56457;52.190;4.440;2023-05-09T03:04:24;101706.38;;;14.42;100.00
69318;BME280;56457;52.190;4.440;2023-05-09T03:05:24;101704.63;;;14.41;100.00
69318;BME280;56457;52.190;4.440;2023-05-09T03:06:25;101702.88;;;14.40;100.00
69318;BME280;56457;52.190;4.440;2023-05-09T03:07:25;101701.13;;;14.39;100.00
69318;BME280;56457;52.190;4.440;2023-05-09T03:08:25;101696.72;;;14.38;100.00
69318;BME280;56457;52.190;4.440;2023-05-09T03:09:25;101693.25;;;14.33;100.00
69318;BME280;56457;52.190;4.440;2023-05-09T03:10:26;101694.13;;;14.34;100.00
69318;BME280;56457;52.190;4.440;2023-05-09T03:11:26;101695.06;;;14.31;100.00
69318;BME280;56457;52.190;4.440;2023-05-09T03:12:26;101700.31;;;14.31;100.00
69318;BME280;56457;52.190;4.440;2023-05-09T03:13:27;101696.78;;;14.32;100.00
69318;BME280;56457;52.190;4.440;2023-05-09T03:14:27;101702.06;;;14.35;100.00
69318;BME280;56457;52.190;4.440;2023-05-09T03:15:27;101690.63;;;14.35;100.00
69318;BME280;56457;52.190;4.440;2023-05-09T03:16:27;101695.88;;;14.36;100.00
69318;BME280;56457;52.190;4.440;2023-05-09T03:17:28;101694.94;;;14.40;100.00
69318;BME280;56457;52.190;4.440;2023-05-09T03:18:28;101687.94;;;14.38;100.00
69318;BME280;56457;52.190;4.440;2023-05-09T03:19:28;101687.94;;;14.38;100.00
69318;BME280;56457;52.190;4.440;2023-05-09T03:20:28;101689.72;;;14.36;100.00
69318;BME280;56457;52.190;4.440;2023-05-09T03:21:29;101690.59;;;14.38;100.00
69318;BME280;56457;52.190;4.440;2023-05-09T03:22:30;101692.34;;;14.37;100.00
69318;BME280;56457;52.190;4.440;2023-05-09T03:23:31;101683.59;;;14.35;100.00
69318;BME280;56457;52.190;4.440;2023-05-09T03:24:31;101681.81;;;14.34;100.00
69318;BME280;56457;52.190;4.440;2023-05-09T03:25:31;101677.38;;;14.38;100.00
69318;BME280;56457;52.190;4.440;2023-05-09T03:26:32;101676.53;;;14.34;100.00
69318;BME280;56457;52.190;4.440;2023-05-09T03:27:34;101679.19;;;14.36;100.00
69318;BME280;56457;52.190;4.440;2023-05-09T03:28:35;101673.91;;;14.36;100.00
69318;BME280;56457;52.190;4.440;2023-05-09T03:29:35;101674.78;;;14.36;100.00
69318;BME280;56457;52.190;4.440;2023-05-09T03:30:35;101665.13;;;14.32;100.00
69318;BME280;56457;52.190;4.440;2023-05-09T03:31:35;101674.78;;;14.33;100.00
69318;BME280;56457;52.190;4.440;2023-05-09T03:32:36;101671.25;;;14.34;100.00
69318;BME280;56457;52.190;4.440;2023-05-09T03:33:36;101668.59;;;14.37;100.00
69318;BME280;56457;52.190;4.440;2023-05-09T03:34:36;101666.81;;;14.39;100.00
69318;BME280;56457;52.190;4.440;2023-05-09T03:35:36;101669.44;;;14.39;100.00
69318;BME280;56457;52.190;4.440;2023-05-09T03:36:37;101666.81;;;14.39;100.00
69318;BME280;56457;52.190;4.440;2023-05-09T03:37:37;101672.06;;;14.42;100.00
69318;BME280;56457;52.190;4.440;2023-05-09T03:38:37;101659.78;;;14.38;100.00
69318;BME280;56457;52.190;4.440;2023-05-09T03:39:38;101661.53;;;14.39;100.00
69318;BME280;56457;52.190;4.440;2023-05-09T03:40:38;101663.31;;;14.34;100.00
69318;BME280;56457;52.190;4.440;2023-05-09T03:41:38;101661.56;;;14.36;100.00
69318;BME280;56457;52.190;4.440;2023-05-09T03:42:38;101652.75;;;14.37;100.00
69318;BME280;56457;52.190;4.440;2023-05-09T03:43:39;101649.22;;;14.38;100.00
69318;BME280;56457;52.190;4.440;2023-05-09T03:44:39;101649.22;;;14.38;100.00
69318;BME280;56457;52.190;4.440;2023-05-09T03:45:39;101644.81;;;14.39;100.00
69318;BME280;56457;52.190;4.440;2023-05-09T03:46:40;101648.28;;;14.44;100.00
69318;BME280;56457;52.190;4.440;2023-05-09T03:47:40;101644.78;;;14.42;100.00
69318;BME280;56457;52.190;4.440;2023-05-09T03:48:40;101644.78;;;14.40;100.00
69318;BME280;56457;52.190;4.440;2023-05-09T03:49:40;101638.59;;;14.44;100.00
69318;BME280;56457;52.190;4.440;2023-05-09T03:50:41;101640.41;;;14.39;100.00
69318;BME280;56457;52.190;4.440;2023-05-09T03:51:41;101629.03;;;14.36;100.00
69318;BME280;56457;52.190;4.440;2023-05-09T03:52:42;101634.31;;;14.33;100.00
69318;BME280;56457;52.190;4.440;2023-05-09T03:53:44;101629.91;;;14.33;100.00
69318;BME280;56457;52.190;4.440;2023-05-09T03:54:44;101632.56;;;14.32;100.00
69318;BME280;56457;52.190;4.440;2023-05-09T03:55:45;101632.53;;;14.33;100.00
69318;BME280;56457;52.190;4.440;2023-05-09T03:56:45;101627.28;;;14.32;100.00
69318;BME280;56457;52.190;4.440;2023-05-09T03:57:45;101630.81;;;14.32;100.00
69318;BME280;56457;52.190;4.440;2023-05-09T03:58:46;101626.38;;;14.34;100.00
69318;BME280;56457;52.190;4.440;2023-05-09T03:59:46;101627.31;;;14.30;100.00
69318;BME280;56457;52.190;4.440;2023-05-09T04:00:46;101627.28;;;14.32;100.00
69318;BME280;56457;52.190;4.440;2023-05-09T04:01:46;101624.69;;;14.30;100.00
69318;BME280;56457;52.190;4.440;2023-05-09T04:02:47;101623.78;;;14.31;100.00
69318;BME280;56457;52.190;4.440;2023-05-09T04:03:47;101620.28;;;14.27;100.00
69318;BME280;56457;52.190;4.440;2023-05-09T04:04:48;101628.22;;;14.29;100.00
69318;BME280;56457;52.190;4.440;2023-05-09T04:05:49;101622.94;;;14.27;100.00
69318;BME280;56457;52.190;4.440;2023-05-09T04:06:49;101618.53;;;14.26;100.00
69318;BME280;56457;52.190;4.440;2023-05-09T04:07:49;101615.00;;;14.27;100.00
69318;BME280;56457;52.190;4.440;2023-05-09T04:08:49;101614.13;;;14.27;100.00
69318;BME280;56457;52.190;4.440;2023-05-09T04:09:50;101602.69;;;14.28;100.00
69318;BME280;56457;52.190;4.440;2023-05-09T04:10:50;101614.16;;;14.28;100.00
69318;BME280;56457;52.190;4.440;2023-05-09T04:11:51;101608.88;;;14.25;100.00
69318;BME280;56457;52.190;4.440;2023-05-09T04:12:51;101607.13;;;14.26;100.00
69318;BME280;56457;52.190;4.440;2023-05-09T04:13:52;101614.09;;;14.32;100.00
69318;BME280;56457;52.190;4.440;2023-05-09T04:14:53;101609.75;;;14.29;100.00
69318;BME280;56457;52.190;4.440;2023-05-09T04:15:53;101607.03;;;14.32;100.00
69318;BME280;56457;52.190;4.440;2023-05-09T04:16:53;101607.94;;;14.31;100.00
69318;BME280;56457;52.190;4.440;2023-05-09T04:17:54;101617.63;;;14.31;100.00
69318;BME280;56457;52.190;4.440;2023-05-09T04:18:54;101611.47;;;14.32;100.00
69318;BME280;56457;52.190;4.440;2023-05-09T04:19:54;101609.69;;;14.32;100.00
69318;BME280;56457;52.190;4.440;2023-05-09T04:20:55;101612.31;;;14.32;100.00
69318;BME280;56457;52.190;4.440;2023-05-09T04:21:55;101612.31;;;14.34;100.00
69318;BME280;56457;52.190;4.440;2023-05-09T04:22:55;101597.38;;;14.31;100.00
69318;BME280;56457;52.190;4.440;2023-05-09T04:23:56;101604.38;;;14.34;100.00
69318;BME280;56457;52.190;4.440;2023-05-09T04:24:57;101604.41;;;14.32;100.00
69318;BME280;56457;52.190;4.440;2023-05-09T04:25:57;101604.41;;;14.32;100.00
69318;BME280;56457;52.190;4.440;2023-05-09T04:26:58;101609.66;;;14.37;100.00
69318;BME280;56457;52.190;4.440;2023-05-09T04:27:58;101604.38;;;14.35;100.00
69318;BME280;56457;52.190;4.440;2023-05-09T04:28:59;101604.44;;;14.31;100.00
69318;BME280;56457;52.190;4.440;2023-05-09T04:29:59;101601.78;;;14.32;100.00
69318;BME280;56457;52.190;4.440;2023-05-09T04:30:59;101608.84;;;14.30;100.00
69318;BME280;56457;52.190;4.440;2023-05-09T04:32:00;101604.44;;;14.27;100.00
69318;BME280;56457;52.190;4.440;2023-05-09T04:33:00;101607.97;;;14.30;100.00
69318;BME280;56457;52.190;4.440;2023-05-09T04:34:01;101610.59;;;14.28;100.00
69318;BME280;56457;52.190;4.440;2023-05-09T04:35:02;101609.72;;;14.31;100.00
69318;BME280;56457;52.190;4.440;2023-05-09T04:36:03;101610.53;;;14.34;100.00
69318;BME280;56457;52.190;4.440;2023-05-09T04:37:03;101617.59;;;14.32;100.00
69318;BME280;56457;52.190;4.440;2023-05-09T04:38:03;101616.72;;;14.32;100.00
69318;BME280;56457;52.190;4.440;2023-05-09T04:39:04;101614.97;;;14.32;100.00
69318;BME280;56457;52.190;4.440;2023-05-09T04:40:04;101622.00;;;14.32;100.00
69318;BME280;56457;52.190;4.440;2023-05-09T04:41:05;101617.66;;;14.29;100.00
69318;BME280;56457;52.190;4.440;2023-05-09T04:42:05;101617.66;;;14.27;100.00
69318;BME280;56457;52.190;4.440;2023-05-09T04:43:05;101618.53;;;14.26;100.00
69318;BME280;56457;52.190;4.440;2023-05-09T04:44:06;101620.28;;;14.27;100.00
69318;BME280;56457;52.190;4.440;2023-05-09T04:45:07;101620.31;;;14.26;100.00
69318;BME280;56457;52.190;4.440;2023-05-09T04:46:08;101621.22;;;14.22;100.00
69318;BME280;56457;52.190;4.440;2023-05-09T04:47:08;101624.81;;;14.18;100.00
69318;BME280;56457;52.190;4.440;2023-05-09T04:48:08;101623.03;;;14.18;100.00
69318;BME280;56457;52.190;4.440;2023-05-09T04:49:09;101629.28;;;14.11;100.00
69318;BME280;56457;52.190;4.440;2023-05-09T04:50:09;101625.78;;;14.08;100.00
69318;BME280;56457;52.190;4.440;2023-05-09T04:51:10;101620.53;;;14.05;100.00
69318;BME280;56457;52.190;4.440;2023-05-09T04:52:10;101622.34;;;13.99;100.00
69318;BME280;56457;52.190;4.440;2023-05-09T04:53:10;101626.75;;;13.99;100.00
69318;BME280;56457;52.190;4.440;2023-05-09T04:54:11;101632.06;;;13.97;100.00
69318;BME280;56457;52.190;4.440;2023-05-09T04:55:11;101626.78;;;13.97;100.00
69318;BME280;56457;52.190;4.440;2023-05-09T04:56:12;101639.94;;;13.96;100.00
69318;BME280;56457;52.190;4.440;2023-05-09T04:57:12;101633.81;;;13.94;100.00
69318;BME280;56457;52.190;4.440;2023-05-09T04:58:12;101635.56;;;13.96;100.00
69318;BME280;56457;52.190;4.440;2023-05-09T04:59:12;101632.91;;;13.99;100.00
69318;BME280;56457;52.190;4.440;2023-05-09T05:00:13;101628.53;;;13.98;100.00
69318;BME280;56457;52.190;4.440;2023-05-09T05:01:15;101628.53;;;13.95;100.00
69318;BME280;56457;52.190;4.440;2023-05-09T05:02:15;101628.53;;;13.98;100.00
69318;BME280;56457;52.190;4.440;2023-05-09T05:03:16;101631.16;;;13.95;100.00
69318;BME280;56457;52.190;4.440;2023-05-09T05:04:17;101629.41;;;13.96;100.00
69318;BME280;56457;52.190;4.440;2023-05-09T05:05:17;101626.75;;;13.96;100.00
69318;BME280;56457;52.190;4.440;2023-05-09T05:06:17;101625.91;;;13.94;100.00
69318;BME280;56457;52.190;4.440;2023-05-09T05:07:17;101630.31;;;13.93;100.00
69318;BME280;56457;52.190;4.440;2023-05-09T05:08:18;101625.06;;;13.90;100.00
69318;BME280;56457;52.190;4.440;2023-05-09T05:09:18;101634.69;;;13.96;100.00
69318;BME280;56457;52.190;4.440;2023-05-09T05:10:18;101623.28;;;13.94;100.00
69318;BME280;56457;52.190;4.440;2023-05-09T05:11:19;101623.31;;;13.89;100.00
69318;BME280;56457;52.190;4.440;2023-05-09T05:12:20;101619.78;;;13.89;100.00
69318;BME280;56457;52.190;4.440;2023-05-09T05:13:20;101625.94;;;13.92;100.00
69318;BME280;56457;52.190;4.440;2023-05-09T05:14:21;101627.69;;;13.93;100.00
69318;BME280;56457;52.190;4.440;2023-05-09T05:15:21;101625.03;;;13.95;100.00
69318;BME280;56457;52.190;4.440;2023-05-09T05:16:21;101620.63;;;13.94;100.00
69318;BME280;56457;52.190;4.440;2023-05-09T05:17:22;101630.28;;;13.96;100.00
69318;BME280;56457;52.190;4.440;2023-05-09T05:18:23;101619.75;;;13.93;100.00
69318;BME280;56457;52.190;4.440;2023-05-09T05:19:24;101621.56;;;13.88;100.00
69318;BME280;56457;52.190;4.440;2023-05-09T05:20:24;101614.50;;;13.90;100.00
69318;BME280;56457;52.190;4.440;2023-05-09T05:21:24;101613.63;;;13.91;100.00
69318;BME280;56457;52.190;4.440;2023-05-09T05:22:24;101608.34;;;13.90;100.00
69318;BME280;56457;52.190;4.440;2023-05-09T05:23:25;101610.13;;;13.89;100.00
69318;BME280;56457;52.190;4.440;2023-05-09T05:24:26;101612.81;;;13.86;100.00
69318;BME280;56457;52.190;4.440;2023-05-09T05:25:26;101609.28;;;13.87;100.00
69318;BME280;56457;52.190;4.440;2023-05-09T05:26:26;101609.22;;;13.92;100.00
69318;BME280;56457;52.190;4.440;2023-05-09T05:27:28;101607.44;;;13.95;100.00
69318;BME280;56457;52.190;4.440;2023-05-09T05:28:28;101610.09;;;13.91;100.00
69318;BME280;56457;52.190;4.440;2023-05-09T05:29:28;101597.81;;;13.91;100.00
69318;BME280;56457;52.190;4.440;2023-05-09T05:30:29;101611.88;;;13.90;100.00